createdAt,value
2023-03-10T00:00:08.796Z,98740.50
2023-03-10T00:02:37.592Z,98730.00
2023-03-10T00:05:05.970Z,98730.97
2023-03-10T00:07:33.538Z,98727.75
2023-03-10T00:10:01.447Z,98714.97
2023-03-10T00:12:29.538Z,98720.44
2023-03-10T00:14:57.561Z,98719.63
2023-03-10T00:17:28.673Z,98723.72
2023-03-10T00:19:56.846Z,98714.97
2023-03-10T00:22:24.508Z,98716.25
2023-03-10T00:24:54.998Z,98722.34
2023-03-10T00:27:22.464Z,98727.16
2023-03-10T00:29:51.754Z,98730.06
2023-03-10T00:32:20.704Z,98729.59
2023-03-10T00:34:48.858Z,98727.75
2023-03-10T00:37:18.987Z,98716.59
2023-03-10T00:39:52.090Z,98711.50
2023-03-10T00:42:20.816Z,98709.44
2023-03-10T00:44:49.639Z,98711.22
2023-03-10T00:47:17.479Z,98704.34
2023-03-10T00:49:45.492Z,98704.91
2023-03-10T00:52:13.338Z,98696.50
2023-03-10T00:54:42.093Z,98696.38
2023-03-10T00:57:10.004Z,98698.13
2023-03-10T00:59:49.900Z,98695.47
2023-03-10T01:02:21.733Z,98687.72
2023-03-10T01:04:49.818Z,98696.44
2023-03-10T01:07:17.955Z,98696.72
2023-03-10T01:09:45.874Z,98687.31
2023-03-10T01:12:13.972Z,98686.94
2023-03-10T01:14:41.504Z,98683.34
2023-03-10T01:17:10.595Z,98680.78
2023-03-10T01:19:38.770Z,98679.84
2023-03-10T01:22:06.869Z,98675.69
2023-03-10T01:24:35.003Z,98668.25
2023-03-10T01:27:03.971Z,98669.00
2023-03-10T01:29:31.500Z,98674.91
2023-03-10T01:31:59.006Z,98665.94
2023-03-10T01:34:26.898Z,98660.19
2023-03-10T01:36:55.154Z,98654.22
2023-03-10T01:39:22.862Z,98658.84
2023-03-10T01:41:50.911Z,98656.94
2023-03-10T01:44:21.250Z,98653.03
2023-03-10T01:46:54.888Z,98655.66
2023-03-10T01:49:36.533Z,98657.72
2023-03-10T01:52:12.006Z,98650.09
2023-03-10T01:54:50.022Z,98649.25
2023-03-10T01:57:20.872Z,98636.50
2023-03-10T01:59:50.021Z,98629.53
2023-03-10T02:02:18.802Z,98628.44
2023-03-10T02:04:48.856Z,98620.03
2023-03-10T02:07:25.279Z,98624.59
2023-03-10T02:09:54.604Z,98621.16
2023-03-10T02:12:22.301Z,98621.31
2023-03-10T02:14:52.149Z,98615.09
2023-03-10T02:17:22.035Z,98614.06
2023-03-10T02:20:12.658Z,98614.06
2023-03-10T02:22:40.944Z,98609.09
2023-03-10T02:25:47.645Z,98616.22
2023-03-10T02:28:15.752Z,98612.72
2023-03-10T02:30:47.329Z,98596.94
2023-03-10T02:33:23.255Z,98596.94
2023-03-10T02:35:51.891Z,98602.69
2023-03-10T02:38:21.141Z,98607.72
2023-03-10T02:40:52.829Z,98608.31
2023-03-10T02:43:29.382Z,98601.16
2023-03-10T02:46:01.863Z,98600.13
2023-03-10T02:48:33.210Z,98595.31
2023-03-10T02:51:05.369Z,98590.75
2023-03-10T02:53:34.095Z,98591.94
2023-03-10T02:56:02.393Z,98591.25
2023-03-10T02:58:32.588Z,98589.31
2023-03-10T03:01:01.358Z,98576.53
2023-03-10T03:03:29.416Z,98574.66
2023-03-10T03:05:58.197Z,98569.38
2023-03-10T03:08:27.965Z,98572.78
2023-03-10T03:10:57.070Z,98569.16
2023-03-10T03:13:24.796Z,98555.41
2023-03-10T03:15:53.367Z,98558.50
2023-03-10T03:18:22.342Z,98552.03
2023-03-10T03:20:51.041Z,98545.31
2023-03-10T03:23:20.008Z,98549.00
2023-03-10T03:25:48.044Z,98549.62
2023-03-10T03:28:16.039Z,98542.69
2023-03-10T03:30:45.063Z,98540.78
2023-03-10T03:33:14.093Z,98538.31
2023-03-10T03:35:43.694Z,98533.66
2023-03-10T03:38:11.833Z,98528.41
2023-03-10T03:40:41.517Z,98524.09
2023-03-10T03:43:10.400Z,98512.50
2023-03-10T03:45:38.311Z,98514.91
2023-03-10T03:48:06.130Z,98509.91
2023-03-10T03:50:34.565Z,98516.47
2023-03-10T03:53:04.769Z,98513.81
2023-03-10T03:55:34.811Z,98496.97
2023-03-10T03:58:02.218Z,98491.31
2023-03-10T04:00:31.073Z,98495.16
2023-03-10T04:03:00.782Z,98490.50
2023-03-10T04:05:29.260Z,98486.13
2023-03-10T04:07:58.021Z,98482.94
2023-03-10T04:10:29.172Z,98485.31
2023-03-10T04:12:57.537Z,98483.56
2023-03-10T04:15:25.646Z,98472.59
2023-03-10T04:17:53.824Z,98478.06
2023-03-10T04:20:21.895Z,98475.22
2023-03-10T04:22:52.329Z,98474.66
2023-03-10T04:25:21.141Z,98479.09
2023-03-10T04:27:49.591Z,98482.47
2023-03-10T04:30:18.232Z,98480.69
2023-03-10T04:32:49.137Z,98474.66
2023-03-10T04:35:17.765Z,98462.06
2023-03-10T04:37:46.701Z,98472.44
2023-03-10T04:40:15.242Z,98466.03
2023-03-10T04:42:45.158Z,98466.78
2023-03-10T04:45:15.198Z,98468.19
2023-03-10T04:47:43.894Z,98470.06
2023-03-10T04:50:17.599Z,98468.19
2023-03-10T04:52:46.791Z,98472.91
2023-03-10T04:55:15.433Z,98466.63
2023-03-10T04:57:43.506Z,98459.59
2023-03-10T05:00:12.847Z,98461.84
2023-03-10T05:02:41.135Z,98459.22
2023-03-10T05:05:10.445Z,98445.50
2023-03-10T05:07:41.566Z,98441.03
2023-03-10T05:10:14.926Z,98450.91
2023-03-10T05:12:43.995Z,98439.03
2023-03-10T05:15:13.289Z,98437.25
2023-03-10T05:17:42.853Z,98434.09
2023-03-10T05:20:16.090Z,98435.31
2023-03-10T05:22:46.126Z,98436.06
2023-03-10T05:25:18.779Z,98435.41
2023-03-10T05:27:49.261Z,98435.78
2023-03-10T05:30:17.673Z,98429.75
2023-03-10T05:32:46.572Z,98422.22
2023-03-10T05:35:16.188Z,98414.66
2023-03-10T05:37:45.182Z,98415.19
2023-03-10T05:40:19.655Z,98415.56
2023-03-10T05:42:50.009Z,98422.91
2023-03-10T05:45:18.768Z,98409.31
2023-03-10T05:47:48.131Z,98393.09
2023-03-10T05:50:18.590Z,98399.87
2023-03-10T05:52:46.938Z,98397.12
2023-03-10T05:55:19.945Z,98393.94
2023-03-10T05:57:51.941Z,98394.97
2023-03-10T06:00:21.070Z,98389.53
2023-03-10T06:02:54.886Z,98398.81
2023-03-10T06:05:24.152Z,98390.16
2023-03-10T06:07:52.822Z,98385.25
2023-03-10T06:10:22.085Z,98372.66
2023-03-10T06:12:50.499Z,98371.88
2023-03-10T06:15:20.005Z,98378.53
2023-03-10T06:17:47.880Z,98380.66
2023-03-10T06:20:17.055Z,98382.09
2023-03-10T06:22:47.856Z,98383.81
2023-03-10T06:25:17.653Z,98379.47
2023-03-10T06:27:47.014Z,98381.81
2023-03-10T06:30:17.892Z,98382.19
2023-03-10T06:32:46.635Z,98372.16
2023-03-10T06:35:15.170Z,98367.25
2023-03-10T06:37:45.134Z,98363.41
2023-03-10T06:40:18.103Z,98367.28
2023-03-10T06:42:48.221Z,98349.81
2023-03-10T06:45:17.987Z,98354.72
2023-03-10T06:47:48.727Z,98358.66
2023-03-10T06:50:19.492Z,98361.13
2023-03-10T06:52:58.793Z,98356.06
2023-03-10T06:55:32.986Z,98356.16
2023-03-10T06:58:01.767Z,98352.75
2023-03-10T07:00:30.768Z,98347.53
2023-03-10T07:03:00.874Z,98350.19
2023-03-10T07:05:29.497Z,98363.53
2023-03-10T07:07:59.540Z,98352.44
2023-03-10T07:10:28.544Z,98348.88
2023-03-10T07:12:59.127Z,98342.94
2023-03-10T07:15:28.734Z,98337.50
2023-03-10T07:17:57.848Z,98344.06
2023-03-10T07:20:25.500Z,98336.44
2023-03-10T07:22:53.384Z,98332.31
2023-03-10T07:25:21.979Z,98338.50
2023-03-10T07:27:51.207Z,98338.06
2023-03-10T07:30:20.733Z,98339.13
2023-03-10T07:32:55.842Z,98348.47
2023-03-10T07:35:24.873Z,98339.63
2023-03-10T07:37:53.908Z,98331.56
2023-03-10T07:40:25.242Z,98332.28
2023-03-10T07:42:56.890Z,98330.06
2023-03-10T07:45:27.561Z,98333.81
2023-03-10T07:47:55.423Z,98325.91
2023-03-10T07:50:25.892Z,98313.88
2023-03-10T07:52:55.744Z,98309.47
2023-03-10T07:55:24.630Z,98306.22
2023-03-10T07:57:53.202Z,98306.84
2023-03-10T08:00:21.218Z,98302.13
2023-03-10T08:02:56.046Z,98299.31
2023-03-10T08:05:24.190Z,98298.41
2023-03-10T08:07:53.708Z,98290.00
2023-03-10T08:10:21.247Z,98288.69
2023-03-10T08:12:49.009Z,98290.38
2023-03-10T08:15:17.909Z,98282.66
2023-03-10T08:17:47.093Z,98267.62
2023-03-10T08:20:16.091Z,98267.41
2023-03-10T08:22:47.218Z,98266.06
2023-03-10T08:25:15.021Z,98262.78
2023-03-10T08:27:44.023Z,98262.81
2023-03-10T08:30:19.959Z,98266.75
2023-03-10T08:32:50.788Z,98259.19
2023-03-10T08:35:28.695Z,98249.75
2023-03-10T08:37:56.921Z,98250.81
2023-03-10T08:40:28.464Z,98242.59
2023-03-10T08:42:57.385Z,98244.31
2023-03-10T08:45:26.005Z,98239.72
2023-03-10T08:47:55.793Z,98236.66
2023-03-10T08:50:24.822Z,98229.34
2023-03-10T08:52:54.697Z,98233.09
2023-03-10T08:55:25.110Z,98224.66
2023-03-10T08:57:54.590Z,98223.16
2023-03-10T09:00:25.674Z,98222.47
2023-03-10T09:02:53.902Z,98222.75
2023-03-10T09:05:22.106Z,98220.62
2023-03-10T09:07:55.893Z,98215.19
2023-03-10T09:10:25.059Z,98210.69
2023-03-10T09:13:01.098Z,98217.13
2023-03-10T09:15:41.542Z,98216.16
2023-03-10T09:18:12.284Z,98216.03
2023-03-10T09:20:43.187Z,98205.78
2023-03-10T09:23:18.044Z,98197.78
2023-03-10T09:25:49.100Z,98195.69
2023-03-10T09:28:20.777Z,98191.75
2023-03-10T09:30:51.059Z,98190.19
2023-03-10T09:33:22.749Z,98183.75
2023-03-10T09:36:06.001Z,98179.75
2023-03-10T09:38:36.124Z,98177.06
2023-03-10T09:41:19.023Z,98173.72
2023-03-10T09:43:52.687Z,98171.91
2023-03-10T09:46:25.968Z,98169.47
2023-03-10T09:49:18.082Z,98157.50
2023-03-10T09:51:50.662Z,98162.50
2023-03-10T09:54:33.936Z,98153.72
2023-03-10T09:57:04.703Z,98157.53
2023-03-10T09:59:37.745Z,98148.13
2023-03-10T10:02:21.129Z,98148.81
2023-03-10T10:04:53.863Z,98127.66
2023-03-10T10:07:25.736Z,98129.44
2023-03-10T10:10:14.385Z,98124.31
2023-03-10T10:12:43.733Z,98120.56
2023-03-10T10:15:17.196Z,98123.94
2023-03-10T10:18:08.335Z,98121.78
2023-03-10T10:20:59.261Z,98118.66
2023-03-10T10:24:01.720Z,98109.22
2023-03-10T10:26:31.247Z,98093.34
2023-03-10T10:29:26.620Z,98085.59
2023-03-10T10:32:11.769Z,98072.41
2023-03-10T10:34:47.441Z,98072.84
2023-03-10T10:37:40.949Z,98076.66
2023-03-10T10:40:24.718Z,98067.22
2023-03-10T10:42:55.713Z,98053.56
2023-03-10T10:45:54.587Z,98061.22
2023-03-10T10:49:03.038Z,98065.72
2023-03-10T10:51:36.093Z,98057.44
2023-03-10T10:54:47.715Z,98064.06
2023-03-10T10:57:25.443Z,98056.84
2023-03-10T10:59:56.080Z,98047.31
2023-03-10T11:02:34.689Z,98046.09
2023-03-10T11:05:12.343Z,98035.81
2023-03-10T11:07:40.655Z,98029.50
2023-03-10T11:10:15.706Z,98022.56
2023-03-10T11:13:06.885Z,98019.66
2023-03-10T11:15:56.933Z,97997.81
2023-03-10T11:18:36.003Z,97992.69
2023-03-10T11:21:08.083Z,97997.94
2023-03-10T11:23:57.895Z,97997.09
2023-03-10T11:26:35.263Z,97996.75
2023-03-10T11:29:29.133Z,97989.22
2023-03-10T11:32:08.743Z,97968.53
2023-03-10T11:34:43.790Z,97971.38
2023-03-10T11:37:26.787Z,97963.09
2023-03-10T11:40:11.897Z,97955.16
2023-03-10T11:42:49.124Z,97956.38
2023-03-10T11:45:53.774Z,97950.31
2023-03-10T11:48:29.822Z,97932.34
2023-03-10T11:51:00.843Z,97925.53
2023-03-10T11:53:38.608Z,97934.59
2023-03-10T11:56:12.662Z,97918.22
2023-03-10T11:58:53.125Z,97903.91
2023-03-10T12:01:31.601Z,97909.91
2023-03-10T12:04:21.756Z,97909.56
2023-03-10T12:12:27.315Z,97868.22
2023-03-10T12:14:57.687Z,97868.22
2023-03-10T12:22:46.884Z,97847.78
2023-03-10T12:36:04.392Z,97828.06
2023-03-10T12:41:46.015Z,97825.41
2023-03-10T12:44:23.536Z,97825.41
2023-03-10T12:49:41.824Z,97807.84
2023-03-10T12:52:24.347Z,97807.84
2023-03-10T12:58:14.741Z,97796.06
2023-03-10T13:14:22.996Z,97780.09
2023-03-10T13:18:19.514Z,97772.38
2023-03-10T13:20:48.767Z,97772.38
2023-03-10T13:29:27.933Z,97796.03
2023-03-10T13:34:37.220Z,97759.69
2023-03-10T13:37:14.248Z,97759.69
2023-03-10T13:42:44.555Z,97738.31
2023-03-10T13:45:25.934Z,97738.31
2023-03-10T14:09:00.753Z,97743.63
2023-03-10T14:40:49.481Z,97718.84
2023-03-10T14:55:36.407Z,97704.22
2023-03-10T15:03:06.315Z,97699.22
2023-03-10T15:43:03.093Z,97713.59
2023-03-10T15:46:42.243Z,97708.16
2023-03-10T15:49:10.265Z,97713.34
2023-03-10T15:51:39.393Z,97712.84
2023-03-10T15:54:13.191Z,97713.03
2023-03-10T15:56:48.416Z,97722.31
2023-03-10T15:59:18.182Z,97717.06
2023-03-10T16:04:21.145Z,97719.19
2023-03-10T16:06:56.107Z,97708.38
2023-03-10T16:09:38.642Z,97700.34
2023-03-10T16:12:09.334Z,97704.69
2023-03-10T16:14:49.245Z,97688.91
2023-03-10T16:17:24.035Z,97692.41
2023-03-10T16:19:54.572Z,97691.91
2023-03-10T16:22:25.570Z,97693.44
2023-03-10T16:24:59.353Z,97690.44
2023-03-10T16:27:28.191Z,97687.66
2023-03-10T16:29:56.539Z,97685.38
2023-03-10T16:32:28.174Z,97680.78
2023-03-10T16:34:56.955Z,97683.28
2023-03-10T16:37:28.041Z,97684.31
2023-03-10T16:40:00.307Z,97687.81
2023-03-10T16:42:35.953Z,97681.41
2023-03-10T16:45:06.153Z,97690.59
2023-03-10T16:47:35.828Z,97695.44
2023-03-10T16:50:09.406Z,97688.28
2023-03-10T16:52:42.976Z,97701.44
2023-03-10T16:55:21.084Z,97702.91
2023-03-10T16:57:57.392Z,97715.25
2023-03-10T17:00:31.107Z,97723.13
2023-03-10T17:03:00.121Z,97726.28
2023-03-10T17:05:37.354Z,97729.09
2023-03-10T17:08:07.346Z,97726.00
2023-03-10T17:10:44.295Z,97729.37
2023-03-10T17:13:20.378Z,97739.41
2023-03-10T17:15:55.708Z,97738.37
2023-03-10T17:18:24.420Z,97738.09
2023-03-10T17:20:53.260Z,97735.31
2023-03-10T17:23:23.899Z,97741.88
2023-03-10T17:25:58.696Z,97731.75
2023-03-10T17:28:29.107Z,97729.34
2023-03-10T17:31:10.041Z,97733.28
2023-03-10T17:33:44.440Z,97736.53
2023-03-10T17:38:57.273Z,97730.44
2023-03-10T17:41:36.141Z,97728.94
2023-03-10T17:44:07.225Z,97728.13
2023-03-10T17:46:41.264Z,97730.00
2023-03-10T17:51:48.167Z,97737.25
2023-03-10T17:54:25.292Z,97723.22
2023-03-10T17:56:55.712Z,97727.25
2023-03-10T17:59:28.935Z,97730.44
2023-03-10T18:02:07.392Z,97720.94
2023-03-10T18:04:43.175Z,97726.00
2023-03-10T18:07:14.299Z,97720.63
2023-03-10T18:09:44.207Z,97716.72
2023-03-10T18:12:17.270Z,97719.94
2023-03-10T18:15:06.646Z,97725.81
2023-03-10T18:17:43.597Z,97761.81
2023-03-10T18:20:16.178Z,97770.47
2023-03-10T18:22:45.745Z,97775.87
2023-03-10T18:25:16.159Z,97773.34
2023-03-10T18:27:54.314Z,97766.00
2023-03-10T18:30:29.760Z,97765.00
2023-03-10T18:35:45.442Z,97753.84
2023-03-10T18:38:29.109Z,97760.81
2023-03-10T18:43:39.859Z,97752.28
2023-03-10T18:46:08.623Z,97746.44
2023-03-10T18:48:37.095Z,97743.88
2023-03-10T18:51:06.237Z,97745.63
2023-03-10T18:53:40.205Z,97750.47
2023-03-10T18:56:08.670Z,97756.25
2023-03-10T18:58:42.214Z,97762.41
2023-03-10T19:01:20.332Z,97782.91
2023-03-10T19:06:35.457Z,97793.88
2023-03-10T19:51:55.107Z,97759.38
2023-03-10T19:54:26.295Z,97766.25
2023-03-10T19:56:58.339Z,97766.44
2023-03-10T20:02:22.273Z,97776.91
2023-03-10T20:04:53.127Z,97775.31
2023-03-10T20:07:31.324Z,97777.88
2023-03-10T20:10:04.095Z,97783.87
2023-03-10T20:15:11.532Z,97786.88
2023-03-10T20:17:42.229Z,97795.19
2023-03-10T20:20:19.088Z,97792.97
2023-03-10T20:22:52.148Z,97789.97
2023-03-10T20:25:27.601Z,97778.91
2023-03-10T20:27:57.279Z,97767.87
2023-03-10T20:30:28.308Z,97746.88
2023-03-10T20:33:01.973Z,97725.66
2023-03-10T20:35:40.170Z,97703.56
2023-03-10T20:38:13.923Z,97693.59
2023-03-10T20:40:44.279Z,97667.06
2023-03-10T20:43:22.533Z,97666.75
2023-03-10T20:45:57.296Z,97647.44
2023-03-10T20:48:28.254Z,97668.91
2023-03-10T20:51:02.091Z,97690.53
2023-03-10T20:53:37.477Z,97708.78
2023-03-10T20:56:10.400Z,97721.41
2023-03-10T20:58:46.164Z,97719.03
2023-03-10T21:01:21.527Z,97716.25
2023-03-10T21:03:55.190Z,97730.63
2023-03-10T21:06:27.388Z,97722.94
2023-03-10T21:08:59.058Z,97719.31
2023-03-10T21:11:28.102Z,97727.84
2023-03-10T21:13:57.159Z,97723.78
2023-03-10T21:16:25.246Z,97722.78
2023-03-10T21:21:31.777Z,97727.00
2023-03-10T21:24:01.111Z,97742.22
2023-03-10T21:26:33.524Z,97744.59
2023-03-10T21:29:06.261Z,97737.47
2023-03-10T21:31:36.176Z,97736.87
2023-03-10T21:34:10.200Z,97733.97
2023-03-10T21:36:40.276Z,97740.53
2023-03-10T21:39:09.112Z,97741.94
2023-03-10T21:41:37.625Z,97752.56
2023-03-10T21:44:06.246Z,97754.81
2023-03-10T21:46:35.172Z,97745.84
2023-03-10T21:49:04.102Z,97750.59
2023-03-10T21:51:37.840Z,97743.88
2023-03-10T21:54:14.817Z,97744.87
2023-03-10T21:56:44.833Z,97757.25
2023-03-10T21:59:12.500Z,97766.81
2023-03-10T22:01:41.317Z,97765.59
2023-03-10T22:04:14.424Z,97763.66
2023-03-10T22:06:43.529Z,97758.06
2023-03-10T22:09:16.135Z,97771.78
2023-03-10T22:11:44.179Z,97773.22
2023-03-10T22:14:15.220Z,97766.34
2023-03-10T22:16:44.085Z,97756.62
2023-03-10T22:19:12.401Z,97756.94
2023-03-10T22:21:41.983Z,97745.81
2023-03-10T22:24:10.807Z,97742.16
2023-03-10T22:26:39.568Z,97742.84
2023-03-10T22:29:07.437Z,97750.25
2023-03-10T22:31:35.764Z,97738.53
2023-03-10T22:34:03.461Z,97736.56
2023-03-10T22:36:33.722Z,97730.97
2023-03-10T22:39:02.141Z,97721.78
2023-03-10T22:41:30.120Z,97720.25
2023-03-10T22:43:59.066Z,97717.62
2023-03-10T22:46:27.405Z,97713.56
2023-03-10T22:48:55.741Z,97718.28
2023-03-10T22:51:23.880Z,97719.09
2023-03-10T22:53:51.551Z,97721.22
2023-03-10T22:56:19.313Z,97723.81
2023-03-10T22:58:47.284Z,97732.34
2023-03-10T23:01:15.215Z,97738.72
2023-03-10T23:03:42.972Z,97740.59
2023-03-10T23:06:16.499Z,97747.16
2023-03-10T23:08:44.432Z,97743.81
2023-03-10T23:11:17.093Z,97739.16
2023-03-10T23:13:44.994Z,97743.00
2023-03-10T23:16:13.403Z,97746.19
2023-03-10T23:18:41.368Z,97737.94
2023-03-10T23:21:10.535Z,97742.53
2023-03-10T23:23:48.849Z,97752.09
2023-03-10T23:26:16.504Z,97758.97
2023-03-10T23:28:44.841Z,97762.41
2023-03-10T23:31:15.651Z,97767.37
2023-03-10T23:33:44.773Z,97774.09
2023-03-10T23:36:13.661Z,97773.81
2023-03-10T23:38:41.381Z,97772.75
2023-03-10T23:41:09.728Z,97766.72
2023-03-10T23:43:38.242Z,97764.34
2023-03-10T23:46:09.189Z,97766.00
2023-03-10T23:48:37.176Z,97778.19
2023-03-10T23:51:12.977Z,97778.31
2023-03-10T23:53:43.127Z,97772.81
2023-03-10T23:56:12.419Z,97770.63
2023-03-10T23:58:40.383Z,97763.41
